sensor_id;sensor_type;location;lat;lon;timestamp;pressure;altitude;pressure_sealevel;temperature;humidity
79006;BME280;69202;45.498;-73.582;2023-08-07T00:01:17;100759.13;;;24.90;37.99
79006;BME280;69202;45.498;-73.582;2023-08-07T00:03:43;100708.03;;;24.59;38.46
79006;BME280;69202;45.498;-73.582;2023-08-07T00:06:09;100744.06;;;24.77;38.47
79006;BME280;69202;45.498;-73.582;2023-08-07T00:08:34;100757.31;;;24.81;39.00
79006;BME280;69202;45.498;-73.582;2023-08-07T00:11:07;100748.00;;;24.71;39.95
79006;BME280;69202;45.498;-73.582;2023-08-07T00:13:33;100747.28;;;24.61;40.80
79006;BME280;69202;45.498;-73.582;2023-08-07T00:15:59;100719.88;;;24.35;39.83
79006;BME280;69202;45.498;-73.582;2023-08-07T00:18:25;100679.81;;;24.04;39.80
79006;BME280;69202;45.498;-73.582;2023-08-07T00:20:51;100747.94;;;24.53;39.85
79006;BME280;69202;45.498;-73.582;2023-08-07T00:23:16;100747.97;;;24.47;40.25
79006;BME280;69202;45.498;-73.582;2023-08-07T00:25:42;100746.41;;;24.36;40.63
79006;BME280;69202;45.498;-73.582;2023-08-07T00:28:08;100756.09;;;24.39;40.84
79006;BME280;69202;45.498;-73.582;2023-08-07T00:30:34;100770.00;;;24.24;46.08
79006;BME280;69202;45.498;-73.582;2023-08-07T00:33:00;100732.47;;;23.83;46.59
79006;BME280;69202;45.498;-73.582;2023-08-07T00:35:26;100740.81;;;23.73;45.81
79006;BME280;69202;45.498;-73.582;2023-08-07T00:37:52;100696.88;;;23.32;44.01
79006;BME280;69202;45.498;-73.582;2023-08-07T00:40:18;100773.09;;;23.78;42.57
79006;BME280;69202;45.498;-73.582;2023-08-07T00:42:44;100767.31;;;23.74;42.45
79006;BME280;69202;45.498;-73.582;2023-08-07T00:45:10;100729.38;;;23.46;41.30
79006;BME280;69202;45.498;-73.582;2023-08-07T00:47:36;100785.75;;;23.84;42.16
79006;BME280;69202;45.498;-73.582;2023-08-07T00:50:04;100651.28;;;22.96;47.53
79006;BME280;69202;45.498;-73.582;2023-08-07T00:52:31;100742.06;;;23.47;49.99
79006;BME280;69202;45.498;-73.582;2023-08-07T00:54:58;100755.59;;;23.43;50.08
79006;BME280;69202;45.498;-73.582;2023-08-07T00:57:24;100723.16;;;23.20;45.24
79006;BME280;69202;45.498;-73.582;2023-08-07T00:59:51;100790.56;;;23.63;43.50
79006;BME280;69202;45.498;-73.582;2023-08-07T01:02:18;100791.09;;;23.65;42.60
79006;BME280;69202;45.498;-73.582;2023-08-07T01:04:44;100747.41;;;23.28;42.40
79006;BME280;69202;45.498;-73.582;2023-08-07T01:07:10;100763.63;;;23.40;42.09
79006;BME280;69202;45.498;-73.582;2023-08-07T01:09:36;100795.56;;;23.56;42.40
79006;BME280;69202;45.498;-73.582;2023-08-07T01:12:16;100748.75;;;23.30;42.83
79006;BME280;69202;45.498;-73.582;2023-08-07T01:15:17;100799.41;;;23.55;43.02
79006;BME280;69202;45.498;-73.582;2023-08-07T01:17:47;100795.63;;;23.41;43.05
79006;BME280;69202;45.498;-73.582;2023-08-07T01:20:15;100761.53;;;23.16;42.89
79006;BME280;69202;45.498;-73.582;2023-08-07T01:22:41;100717.47;;;22.91;43.43
79006;BME280;69202;45.498;-73.582;2023-08-07T01:25:07;100811.38;;;23.40;43.67
79006;BME280;69202;45.498;-73.582;2023-08-07T01:28:25;100817.13;;;23.44;43.65
79006;BME280;69202;45.498;-73.582;2023-08-07T01:30:41;100822.69;;;23.39;44.01
79006;BME280;69202;45.498;-73.582;2023-08-07T01:33:21;100816.34;;;23.33;48.13
79006;BME280;69202;45.498;-73.582;2023-08-07T01:35:52;100785.84;;;23.04;55.13
79006;BME280;69202;45.498;-73.582;2023-08-07T01:38:19;100813.66;;;23.18;60.56
79006;BME280;69202;45.498;-73.582;2023-08-07T01:40:47;100737.09;;;22.69;63.11
79006;BME280;69202;45.498;-73.582;2023-08-07T01:43:14;100700.75;;;22.57;63.66
79006;BME280;69202;45.498;-73.582;2023-08-07T01:45:40;100769.06;;;22.95;62.81
79006;BME280;69202;45.498;-73.582;2023-08-07T01:48:06;100821.06;;;23.22;60.23
79006;BME280;69202;45.498;-73.582;2023-08-07T01:50:32;100817.00;;;23.15;57.79
79006;BME280;69202;45.498;-73.582;2023-08-07T01:53:01;100735.78;;;22.51;55.86
79006;BME280;69202;45.498;-73.582;2023-08-07T01:55:28;100714.03;;;22.24;56.24
79006;BME280;69202;45.498;-73.582;2023-08-07T01:57:53;100827.25;;;22.84;57.70
79006;BME280;69202;45.498;-73.582;2023-08-07T02:00:20;100698.31;;;22.04;58.40
79006;BME280;69202;45.498;-73.582;2023-08-07T02:02:46;100828.06;;;22.89;59.37
79006;BME280;69202;45.498;-73.582;2023-08-07T02:05:13;100726.16;;;22.18;60.00
79006;BME280;69202;45.498;-73.582;2023-08-07T02:07:39;100764.72;;;22.43;60.00
79006;BME280;69202;45.498;-73.582;2023-08-07T02:10:05;100753.13;;;22.46;60.03
79006;BME280;69202;45.498;-73.582;2023-08-07T02:12:31;100793.88;;;22.70;59.40
79006;BME280;69202;45.498;-73.582;2023-08-07T02:14:58;100637.78;;;21.69;57.19
79006;BME280;69202;45.498;-73.582;2023-08-07T02:17:25;100640.25;;;21.70;54.76
79006;BME280;69202;45.498;-73.582;2023-08-07T02:19:51;100812.09;;;22.61;53.28
79006;BME280;69202;45.498;-73.582;2023-08-07T02:22:17;100720.06;;;22.06;53.80
79006;BME280;69202;45.498;-73.582;2023-08-07T02:24:43;100656.22;;;21.68;55.21
79006;BME280;69202;45.498;-73.582;2023-08-07T02:27:09;100734.44;;;22.13;56.65
79006;BME280;69202;45.498;-73.582;2023-08-07T02:29:35;100820.63;;;22.69;57.56
79006;BME280;69202;45.498;-73.582;2023-08-07T02:32:04;100707.41;;;22.05;58.47
79006;BME280;69202;45.498;-73.582;2023-08-07T02:34:31;100654.84;;;21.71;58.54
79006;BME280;69202;45.498;-73.582;2023-08-07T02:36:57;100686.22;;;22.00;58.76
79006;BME280;69202;45.498;-73.582;2023-08-07T02:39:23;100773.78;;;22.59;58.46
79006;BME280;69202;45.498;-73.582;2023-08-07T02:41:49;100772.97;;;22.54;56.18
79006;BME280;69202;45.498;-73.582;2023-08-07T02:44:15;100811.50;;;22.79;54.59
79006;BME280;69202;45.498;-73.582;2023-08-07T02:46:43;100814.56;;;22.72;53.18
79006;BME280;69202;45.498;-73.582;2023-08-07T02:49:09;100633.91;;;21.59;54.45
79006;BME280;69202;45.498;-73.582;2023-08-07T02:51:37;100732.78;;;22.12;56.09
79006;BME280;69202;45.498;-73.582;2023-08-07T02:54:04;100771.34;;;22.42;57.22
79006;BME280;69202;45.498;-73.582;2023-08-07T02:56:30;100782.06;;;22.49;58.18
79006;BME280;69202;45.498;-73.582;2023-08-07T02:58:56;100728.66;;;22.09;59.13
79006;BME280;69202;45.498;-73.582;2023-08-07T03:01:23;100630.03;;;21.55;59.35
79006;BME280;69202;45.498;-73.582;2023-08-07T03:03:49;100802.72;;;22.57;59.34
79006;BME280;69202;45.498;-73.582;2023-08-07T03:06:15;100542.25;;;20.98;58.21
79006;BME280;69202;45.498;-73.582;2023-08-07T03:08:41;100809.06;;;22.62;56.75
79006;BME280;69202;45.498;-73.582;2023-08-07T03:11:08;100638.28;;;21.45;54.56
79006;BME280;69202;45.498;-73.582;2023-08-07T03:13:34;100748.19;;;22.13;54.27
79006;BME280;69202;45.498;-73.582;2023-08-07T03:16:01;100721.19;;;21.89;55.71
79006;BME280;69202;45.498;-73.582;2023-08-07T03:18:28;100809.34;;;22.40;57.31
79006;BME280;69202;45.498;-73.582;2023-08-07T03:20:58;100773.81;;;22.13;58.38
79006;BME280;69202;45.498;-73.582;2023-08-07T03:23:25;100818.72;;;22.44;59.05
79006;BME280;69202;45.498;-73.582;2023-08-07T03:26:00;100808.81;;;22.54;59.64
79006;BME280;69202;45.498;-73.582;2023-08-07T03:28:27;100815.97;;;22.55;59.58
79006;BME280;69202;45.498;-73.582;2023-08-07T03:30:52;100808.25;;;22.57;58.17
79006;BME280;69202;45.498;-73.582;2023-08-07T03:33:18;100736.34;;;22.07;55.93
79006;BME280;69202;45.498;-73.582;2023-08-07T03:35:44;100757.56;;;22.17;54.37
79006;BME280;69202;45.498;-73.582;2023-08-07T03:38:11;100603.03;;;21.17;54.14
79006;BME280;69202;45.498;-73.582;2023-08-07T03:40:37;100592.28;;;21.10;55.56
79006;BME280;69202;45.498;-73.582;2023-08-07T03:43:02;100814.59;;;22.37;57.11
79006;BME280;69202;45.498;-73.582;2023-08-07T03:45:28;100719.25;;;21.80;58.28
79006;BME280;69202;45.498;-73.582;2023-08-07T03:47:54;100710.97;;;21.59;59.15
79006;BME280;69202;45.498;-73.582;2023-08-07T03:50:20;100812.38;;;22.39;59.96
79006;BME280;69202;45.498;-73.582;2023-08-07T03:52:46;100776.81;;;22.07;60.19
79006;BME280;69202;45.498;-73.582;2023-08-07T03:55:12;100785.41;;;22.21;60.10
79006;BME280;69202;45.498;-73.582;2023-08-07T03:57:38;100809.63;;;22.39;58.83
79006;BME280;69202;45.498;-73.582;2023-08-07T04:00:04;100774.91;;;22.07;56.93
79006;BME280;69202;45.498;-73.582;2023-08-07T04:02:30;100812.94;;;22.31;55.05
79006;BME280;69202;45.498;-73.582;2023-08-07T04:04:56;100785.09;;;22.07;54.61
79006;BME280;69202;45.498;-73.582;2023-08-07T04:07:22;100727.78;;;21.68;55.92
79006;BME280;69202;45.498;-73.582;2023-08-07T04:09:48;100688.38;;;21.47;57.25
79006;BME280;69202;45.498;-73.582;2023-08-07T04:12:14;100542.66;;;20.49;58.70
79006;BME280;69202;45.498;-73.582;2023-08-07T04:14:40;100829.47;;;22.21;59.54
79006;BME280;69202;45.498;-73.582;2023-08-07T04:17:05;100782.03;;;22.03;60.22
79006;BME280;69202;45.498;-73.582;2023-08-07T04:19:32;100805.50;;;22.21;60.80
79006;BME280;69202;45.498;-73.582;2023-08-07T04:21:58;100657.00;;;21.28;60.39
79006;BME280;69202;45.498;-73.582;2023-08-07T04:24:25;100795.56;;;22.15;59.09
79006;BME280;69202;45.498;-73.582;2023-08-07T04:26:50;100739.06;;;21.82;56.97
79006;BME280;69202;45.498;-73.582;2023-08-07T04:29:16;100686.16;;;21.44;54.87
79006;BME280;69202;45.498;-73.582;2023-08-07T04:31:42;100777.34;;;21.94;55.47
79006;BME280;69202;45.498;-73.582;2023-08-07T04:34:08;100801.84;;;22.05;57.07
79006;BME280;69202;45.498;-73.582;2023-08-07T04:36:34;100796.34;;;22.05;58.27
79006;BME280;69202;45.498;-73.582;2023-08-07T04:39:00;100743.16;;;21.64;59.55
79006;BME280;69202;45.498;-73.582;2023-08-07T04:41:26;100612.59;;;20.89;60.01
79006;BME280;69202;45.498;-73.582;2023-08-07T04:43:52;100709.03;;;21.50;60.37
79006;BME280;69202;45.498;-73.582;2023-08-07T04:46:18;100795.81;;;22.08;60.70
79006;BME280;69202;45.498;-73.582;2023-08-07T04:48:45;100795.81;;;22.08;59.95
79006;BME280;69202;45.498;-73.582;2023-08-07T04:51:11;100568.81;;;20.67;57.85
79006;BME280;69202;45.498;-73.582;2023-08-07T04:53:37;100767.69;;;21.86;55.85
79006;BME280;69202;45.498;-73.582;2023-08-07T04:56:03;100780.38;;;21.92;55.72
79006;BME280;69202;45.498;-73.582;2023-08-07T04:58:29;100798.53;;;21.98;56.94
79006;BME280;69202;45.498;-73.582;2023-08-07T05:00:56;100767.41;;;21.82;58.30
79006;BME280;69202;45.498;-73.582;2023-08-07T05:03:22;100731.88;;;21.60;59.31
79006;BME280;69202;45.498;-73.582;2023-08-07T05:05:48;100810.41;;;22.04;60.02
79006;BME280;69202;45.498;-73.582;2023-08-07T05:08:16;100796.94;;;22.07;60.28
79006;BME280;69202;45.498;-73.582;2023-08-07T05:10:42;100772.38;;;21.90;60.08
79006;BME280;69202;45.498;-73.582;2023-08-07T05:13:08;100723.91;;;21.64;59.65
79006;BME280;69202;45.498;-73.582;2023-08-07T05:15:34;100687.28;;;21.38;57.51
79006;BME280;69202;45.498;-73.582;2023-08-07T05:18:00;100737.38;;;21.60;55.52
79006;BME280;69202;45.498;-73.582;2023-08-07T05:20:26;100693.50;;;21.23;55.26
79006;BME280;69202;45.498;-73.582;2023-08-07T05:22:52;100619.44;;;20.81;56.58
79006;BME280;69202;45.498;-73.582;2023-08-07T05:25:18;100796.34;;;21.90;57.95
79006;BME280;69202;45.498;-73.582;2023-08-07T05:27:45;100704.88;;;21.37;59.30
79006;BME280;69202;45.498;-73.582;2023-08-07T05:30:11;100556.28;;;20.29;60.10
79006;BME280;69202;45.498;-73.582;2023-08-07T05:32:37;100780.91;;;21.79;60.48
79006;BME280;69202;45.498;-73.582;2023-08-07T05:35:07;100772.06;;;21.67;60.52
79006;BME280;69202;45.498;-73.582;2023-08-07T05:37:34;100813.44;;;22.07;60.23
79006;BME280;69202;45.498;-73.582;2023-08-07T05:40:01;100775.94;;;21.86;58.40
79006;BME280;69202;45.498;-73.582;2023-08-07T05:42:27;100721.13;;;21.49;56.47
79006;BME280;69202;45.498;-73.582;2023-08-07T05:44:53;100723.59;;;21.50;55.20
79006;BME280;69202;45.498;-73.582;2023-08-07T05:47:19;100681.69;;;21.18;55.67
79006;BME280;69202;45.498;-73.582;2023-08-07T05:49:45;100759.16;;;21.72;57.13
79006;BME280;69202;45.498;-73.582;2023-08-07T05:52:11;100769.63;;;21.80;58.42
79006;BME280;69202;45.498;-73.582;2023-08-07T05:54:37;100713.69;;;21.54;59.41
79006;BME280;69202;45.498;-73.582;2023-08-07T05:57:03;100760.81;;;21.83;60.17
79006;BME280;69202;45.498;-73.582;2023-08-07T05:59:29;100601.31;;;20.85;60.84
79006;BME280;69202;45.498;-73.582;2023-08-07T06:01:55;100630.75;;;21.00;61.02
79006;BME280;69202;45.498;-73.582;2023-08-07T06:04:21;100780.66;;;22.01;60.91
79006;BME280;69202;45.498;-73.582;2023-08-07T06:06:47;100783.97;;;22.03;59.47
79006;BME280;69202;45.498;-73.582;2023-08-07T06:09:13;100748.44;;;21.81;57.45
79006;BME280;69202;45.498;-73.582;2023-08-07T06:11:43;100577.91;;;20.67;55.40
79006;BME280;69202;45.498;-73.582;2023-08-07T06:14:09;100703.78;;;21.38;55.82
79006;BME280;69202;45.498;-73.582;2023-08-07T06:16:34;100585.00;;;20.58;57.01
79006;BME280;69202;45.498;-73.582;2023-08-07T06:19:00;100566.59;;;20.54;58.59
79006;BME280;69202;45.498;-73.582;2023-08-07T06:21:26;100666.25;;;21.12;59.75
79006;BME280;69202;45.498;-73.582;2023-08-07T06:23:54;100645.84;;;20.92;60.98
79006;BME280;69202;45.498;-73.582;2023-08-07T06:26:20;100545.06;;;20.35;61.26
79006;BME280;69202;45.498;-73.582;2023-08-07T06:28:46;100764.38;;;21.74;61.31
79006;BME280;69202;45.498;-73.582;2023-08-07T06:31:12;100757.75;;;21.75;61.23
79006;BME280;69202;45.498;-73.582;2023-08-07T06:33:38;100781.78;;;22.00;60.56
79006;BME280;69202;45.498;-73.582;2023-08-07T06:36:06;100756.69;;;21.81;58.76
79006;BME280;69202;45.498;-73.582;2023-08-07T06:38:34;100739.59;;;21.64;56.54
79006;BME280;69202;45.498;-73.582;2023-08-07T06:41:00;100681.41;;;21.24;55.97
79006;BME280;69202;45.498;-73.582;2023-08-07T06:43:26;100568.47;;;20.48;57.12
79006;BME280;69202;45.498;-73.582;2023-08-07T06:45:53;100718.31;;;21.33;58.77
79006;BME280;69202;45.498;-73.582;2023-08-07T06:48:19;100800.44;;;21.87;59.71
79006;BME280;69202;45.498;-73.582;2023-08-07T06:50:49;100711.19;;;21.38;60.46
79006;BME280;69202;45.498;-73.582;2023-08-07T06:53:15;100756.09;;;21.64;60.80
79006;BME280;69202;45.498;-73.582;2023-08-07T06:55:41;100787.81;;;21.92;60.90
79006;BME280;69202;45.498;-73.582;2023-08-07T06:58:07;100764.38;;;21.74;60.62
79006;BME280;69202;45.498;-73.582;2023-08-07T07:00:34;100775.94;;;21.81;60.41
79006;BME280;69202;45.498;-73.582;2023-08-07T07:03:01;100788.91;;;21.96;58.69
79006;BME280;69202;45.498;-73.582;2023-08-07T07:05:27;100778.16;;;21.94;57.06
79006;BME280;69202;45.498;-73.582;2023-08-07T07:07:53;100716.16;;;21.46;55.83
79006;BME280;69202;45.498;-73.582;2023-08-07T07:10:20;100733.50;;;21.56;57.17
79006;BME280;69202;45.498;-73.582;2023-08-07T07:12:46;100776.25;;;21.89;58.54
79006;BME280;69202;45.498;-73.582;2023-08-07T07:15:13;100755.28;;;21.73;59.38
79006;BME280;69202;45.498;-73.582;2023-08-07T07:17:39;100767.69;;;21.86;60.11
79006;BME280;69202;45.498;-73.582;2023-08-07T07:20:05;100777.59;;;21.97;60.00
79006;BME280;69202;45.498;-73.582;2023-08-07T07:22:31;100688.91;;;21.39;59.98
79006;BME280;69202;45.498;-73.582;2023-08-07T07:24:57;100544.34;;;20.55;59.75
79006;BME280;69202;45.498;-73.582;2023-08-07T07:27:23;100570.47;;;20.73;59.07
79006;BME280;69202;45.498;-73.582;2023-08-07T07:29:51;100750.91;;;21.82;56.92
79006;BME280;69202;45.498;-73.582;2023-08-07T07:32:18;100679.00;;;21.33;54.88
79006;BME280;69202;45.498;-73.582;2023-08-07T07:34:43;100660.50;;;21.18;55.52
79006;BME280;69202;45.498;-73.582;2023-08-07T07:37:10;100612.31;;;20.90;56.86
79006;BME280;69202;45.498;-73.582;2023-08-07T07:39:36;100681.75;;;21.43;58.21
79006;BME280;69202;45.498;-73.582;2023-08-07T07:42:02;100496.97;;;20.28;59.43
79006;BME280;69202;45.498;-73.582;2023-08-07T07:44:30;100663.34;;;21.49;59.76
79006;BME280;69202;45.498;-73.582;2023-08-07T07:46:56;100740.16;;;21.86;60.11
79006;BME280;69202;45.498;-73.582;2023-08-07T07:49:22;100736.59;;;21.96;59.94
79006;BME280;69202;45.498;-73.582;2023-08-07T07:51:48;100518.81;;;20.65;59.48
79006;BME280;69202;45.498;-73.582;2023-08-07T07:54:15;100614.03;;;21.22;59.08
79006;BME280;69202;45.498;-73.582;2023-08-07T07:56:43;100663.88;;;21.56;57.55
79006;BME280;69202;45.498;-73.582;2023-08-07T07:59:09;100672.72;;;21.58;55.52
79006;BME280;69202;45.498;-73.582;2023-08-07T08:01:35;100649.56;;;21.44;55.31
79006;BME280;69202;45.498;-73.582;2023-08-07T08:04:01;100684.81;;;21.52;56.75
79006;BME280;69202;45.498;-73.582;2023-08-07T08:06:27;100639.94;;;21.31;57.95
79006;BME280;69202;45.498;-73.582;2023-08-07T08:08:53;100664.72;;;21.51;59.17
79006;BME280;69202;45.498;-73.582;2023-08-07T08:11:19;100653.44;;;21.43;59.85
79006;BME280;69202;45.498;-73.582;2023-08-07T08:13:45;100711.53;;;21.82;60.29
79006;BME280;69202;45.498;-73.582;2023-08-07T08:16:11;100679.03;;;21.64;59.93
79006;BME280;69202;45.498;-73.582;2023-08-07T08:18:37;100713.19;;;21.88;60.13
79006;BME280;69202;45.498;-73.582;2023-08-07T08:21:03;100711.53;;;21.92;59.46
79006;BME280;69202;45.498;-73.582;2023-08-07T08:23:29;100674.38;;;21.69;59.41
79006;BME280;69202;45.498;-73.582;2023-08-07T08:25:55;100621.50;;;21.31;57.44
79006;BME280;69202;45.498;-73.582;2023-08-07T08:28:20;100554.00;;;20.83;55.44
79006;BME280;69202;45.498;-73.582;2023-08-07T08:30:48;100667.47;;;21.41;56.04
79006;BME280;69202;45.498;-73.582;2023-08-07T08:33:14;100563.91;;;20.79;57.59
79006;BME280;69202;45.498;-73.582;2023-08-07T08:35:40;100731.91;;;21.86;58.85
79006;BME280;69202;45.498;-73.582;2023-08-07T08:38:06;100723.34;;;21.77;60.21
79006;BME280;69202;45.498;-73.582;2023-08-07T08:40:33;100662.22;;;21.40;60.60
79006;BME280;69202;45.498;-73.582;2023-08-07T08:43:00;100695.56;;;21.64;60.98
79006;BME280;69202;45.498;-73.582;2023-08-07T08:45:27;100684.53;;;21.53;60.61
79006;BME280;69202;45.498;-73.582;2023-08-07T08:48:01;100671.59;;;21.44;60.62
79006;BME280;69202;45.498;-73.582;2023-08-07T08:50:28;100522.09;;;20.62;60.36
79006;BME280;69202;45.498;-73.582;2023-08-07T08:52:56;100729.16;;;21.86;59.08
79006;BME280;69202;45.498;-73.582;2023-08-07T08:55:23;100729.97;;;21.81;57.05
79006;BME280;69202;45.498;-73.582;2023-08-07T08:57:50;100679.00;;;21.38;56.18
79006;BME280;69202;45.498;-73.582;2023-08-07T09:00:16;100724.75;;;21.70;57.57
79006;BME280;69202;45.498;-73.582;2023-08-07T09:02:51;100722.81;;;21.70;58.57
79006;BME280;69202;45.498;-73.582;2023-08-07T09:05:19;100649.56;;;21.28;59.95
79006;BME280;69202;45.498;-73.582;2023-08-07T09:07:47;100716.22;;;21.71;60.98
79006;BME280;69202;45.498;-73.582;2023-08-07T09:10:14;100686.72;;;21.51;61.13
79006;BME280;69202;45.498;-73.582;2023-08-07T09:12:44;100737.41;;;21.76;61.19
79006;BME280;69202;45.498;-73.582;2023-08-07T09:15:12;100716.19;;;21.61;61.18
79006;BME280;69202;45.498;-73.582;2023-08-07T09:17:42;100734.13;;;21.79;60.84
79006;BME280;69202;45.498;-73.582;2023-08-07T09:20:10;100658.13;;;21.37;59.19
79006;BME280;69202;45.498;-73.582;2023-08-07T09:22:41;100725.03;;;21.78;57.25
79006;BME280;69202;45.498;-73.582;2023-08-07T09:25:10;100679.84;;;21.49;56.46
79006;BME280;69202;45.498;-73.582;2023-08-07T09:27:39;100627.47;;;21.13;57.75
79006;BME280;69202;45.498;-73.582;2023-08-07T09:30:09;100720.88;;;21.76;58.96
79006;BME280;69202;45.498;-73.582;2023-08-07T09:32:36;100717.00;;;21.67;60.33
79006;BME280;69202;45.498;-73.582;2023-08-07T09:35:03;100675.69;;;21.46;61.18
79006;BME280;69202;45.498;-73.582;2023-08-07T09:37:30;100682.06;;;21.52;61.04
79006;BME280;69202;45.498;-73.582;2023-08-07T09:39:56;100701.91;;;21.69;61.12
79006;BME280;69202;45.498;-73.582;2023-08-07T09:42:25;100684.25;;;21.65;61.08
79006;BME280;69202;45.498;-73.582;2023-08-07T09:44:50;100725.03;;;21.88;60.92
79006;BME280;69202;45.498;-73.582;2023-08-07T09:47:18;100695.56;;;21.58;59.79
79006;BME280;69202;45.498;-73.582;2023-08-07T09:49:45;100709.88;;;21.71;57.84
79006;BME280;69202;45.498;-73.582;2023-08-07T09:52:13;100725.59;;;21.80;56.47
79006;BME280;69202;45.498;-73.582;2023-08-07T09:54:40;100726.09;;;21.77;57.32
79006;BME280;69202;45.498;-73.582;2023-08-07T09:57:07;100701.06;;;21.58;58.98
79006;BME280;69202;45.498;-73.582;2023-08-07T09:59:33;100724.19;;;21.78;60.14
79006;BME280;69202;45.498;-73.582;2023-08-07T10:02:03;100725.59;;;21.80;60.99
79006;BME280;69202;45.498;-73.582;2023-08-07T10:04:30;100699.66;;;21.56;61.63
79006;BME280;69202;45.498;-73.582;2023-08-07T10:06:57;100586.50;;;20.96;61.65
79006;BME280;69202;45.498;-73.582;2023-08-07T10:09:24;100720.38;;;21.89;61.39
79006;BME280;69202;45.498;-73.582;2023-08-07T10:11:52;100697.22;;;21.59;61.04
79006;BME280;69202;45.498;-73.582;2023-08-07T10:14:18;100733.56;;;21.97;60.85
79006;BME280;69202;45.498;-73.582;2023-08-07T10:16:45;100717.06;;;21.92;59.19
79006;BME280;69202;45.498;-73.582;2023-08-07T10:19:12;100706.59;;;21.94;57.11
79006;BME280;69202;45.498;-73.582;2023-08-07T10:21:41;100678.75;;;21.75;55.87
79006;BME280;69202;45.498;-73.582;2023-08-07T10:24:08;100529.59;;;20.87;56.41
79006;BME280;69202;45.498;-73.582;2023-08-07T10:26:37;100724.75;;;22.05;58.15
79006;BME280;69202;45.498;-73.582;2023-08-07T10:29:09;100695.84;;;21.82;59.10
79006;BME280;69202;45.498;-73.582;2023-08-07T10:31:38;100686.75;;;21.92;59.75
79006;BME280;69202;45.498;-73.582;2023-08-07T10:34:08;100723.13;;;22.14;60.44
79006;BME280;69202;45.498;-73.582;2023-08-07T10:36:35;100708.81;;;22.17;60.27
79006;BME280;69202;45.498;-73.582;2023-08-07T10:39:09;100703.84;;;22.25;59.81
79006;BME280;69202;45.498;-73.582;2023-08-07T10:44:17;100673.28;;;22.21;59.17
79006;BME280;69202;45.498;-73.582;2023-08-07T10:49:36;100617.66;;;21.94;55.57
79006;BME280;69202;45.498;-73.582;2023-08-07T10:52:12;100692.00;;;22.24;54.70
79006;BME280;69202;45.498;-73.582;2023-08-07T10:54:49;100624.81;;;21.95;55.86
79006;BME280;69202;45.498;-73.582;2023-08-07T10:57:17;100676.00;;;22.36;57.03
79006;BME280;69202;45.498;-73.582;2023-08-07T11:02:25;100682.06;;;22.43;58.64
79006;BME280;69202;45.498;-73.582;2023-08-07T11:04:53;100606.91;;;22.07;58.64
79006;BME280;69202;45.498;-73.582;2023-08-07T11:07:29;100672.66;;;22.55;58.29
79006;BME280;69202;45.498;-73.582;2023-08-07T11:09:56;100689.69;;;22.67;57.91
79006;BME280;69202;45.498;-73.582;2023-08-07T11:12:29;100694.34;;;22.71;57.61
79006;BME280;69202;45.498;-73.582;2023-08-07T11:14:56;100649.78;;;22.49;56.19
79006;BME280;69202;45.498;-73.582;2023-08-07T11:17:28;100687.19;;;22.70;54.26
79006;BME280;69202;45.498;-73.582;2023-08-07T11:19:55;100669.31;;;22.58;53.29
79006;BME280;69202;45.498;-73.582;2023-08-07T11:22:21;100673.72;;;22.59;54.72
79006;BME280;69202;45.498;-73.582;2023-08-07T11:24:47;100609.63;;;22.28;56.14
79006;BME280;69202;45.498;-73.582;2023-08-07T11:27:13;100682.22;;;22.77;57.07
79006;BME280;69202;45.498;-73.582;2023-08-07T11:29:39;100653.88;;;22.72;57.29
79006;BME280;69202;45.498;-73.582;2023-08-07T11:32:05;100649.13;;;22.83;56.58
79006;BME280;69202;45.498;-73.582;2023-08-07T11:34:32;100674.38;;;23.10;56.53
79006;BME280;69202;45.498;-73.582;2023-08-07T11:36:58;100658.66;;;23.11;53.98
79006;BME280;69202;45.498;-73.582;2023-08-07T11:39:25;100623.22;;;22.79;52.20
79006;BME280;69202;45.498;-73.582;2023-08-07T11:41:51;100593.81;;;22.59;51.64
79006;BME280;69202;45.498;-73.582;2023-08-07T11:44:18;100645.78;;;22.91;53.40
79006;BME280;69202;45.498;-73.582;2023-08-07T11:46:44;100502.53;;;22.06;54.73
79006;BME280;69202;45.498;-73.582;2023-08-07T11:49:10;100563.00;;;22.46;51.85
79006;BME280;69202;45.498;-73.582;2023-08-07T11:51:37;100609.06;;;23.00;49.03
79006;BME280;69202;45.498;-73.582;2023-08-07T11:54:03;100654.56;;;23.47;47.91
79006;BME280;69202;45.498;-73.582;2023-08-07T11:56:29;100490.41;;;22.66;47.11
79006;BME280;69202;45.498;-73.582;2023-08-07T11:58:56;100390.44;;;22.16;45.98
79006;BME280;69202;45.498;-73.582;2023-08-07T12:01:24;100684.13;;;24.15;45.23
79006;BME280;69202;45.498;-73.582;2023-08-07T12:03:57;100668.53;;;24.29;45.12
79006;BME280;69202;45.498;-73.582;2023-08-07T12:06:24;100612.69;;;24.03;44.84
79006;BME280;69202;45.498;-73.582;2023-08-07T12:08:54;100652.94;;;24.43;44.57
79006;BME280;69202;45.498;-73.582;2023-08-07T12:11:24;100449.63;;;23.02;43.81
79006;BME280;69202;45.498;-73.582;2023-08-07T12:13:50;100493.13;;;23.16;44.80
79006;BME280;69202;45.498;-73.582;2023-08-07T12:16:17;100616.66;;;23.63;46.37
79006;BME280;69202;45.498;-73.582;2023-08-07T12:18:47;100668.44;;;24.10;43.29
79006;BME280;69202;45.498;-73.582;2023-08-07T12:21:17;100636.06;;;23.87;43.61
79006;BME280;69202;45.498;-73.582;2023-08-07T12:23:48;100670.41;;;24.05;43.66
79006;BME280;69202;45.498;-73.582;2023-08-07T12:26:15;100673.75;;;24.02;45.51
79006;BME280;69202;45.498;-73.582;2023-08-07T12:28:41;100669.34;;;24.01;44.25
79006;BME280;69202;45.498;-73.582;2023-08-07T12:31:07;100642.59;;;23.96;43.85
79006;BME280;69202;45.498;-73.582;2023-08-07T12:33:33;100667.34;;;24.06;43.64
79006;BME280;69202;45.498;-73.582;2023-08-07T12:36:00;100663.66;;;24.16;43.77
79006;BME280;69202;45.498;-73.582;2023-08-07T12:38:27;100654.91;;;24.09;44.25